createdAt,value
2023-06-11T00:00:14.580Z,85.88
2023-06-11T00:03:02.968Z,86.93
2023-06-11T00:05:31.435Z,85.98
2023-06-11T00:08:03.651Z,85.86
2023-06-11T00:10:32.008Z,85.96
2023-06-11T00:13:00.614Z,85.93
2023-06-11T00:15:29.312Z,85.56
2023-06-11T00:17:57.551Z,84.53
2023-06-11T00:20:25.821Z,85.89
2023-06-11T00:22:54.208Z,86.53
2023-06-11T00:25:22.530Z,86.26
2023-06-11T00:27:51.178Z,86.82
2023-06-11T00:30:19.474Z,86.20
2023-06-11T00:32:47.909Z,87.17
2023-06-11T00:35:16.438Z,86.72
2023-06-11T00:37:44.911Z,86.53
2023-06-11T00:40:13.425Z,86.15
2023-06-11T00:42:42.217Z,87.09
2023-06-11T00:45:10.919Z,86.54
2023-06-11T00:47:40.813Z,85.85
2023-06-11T00:50:10.857Z,87.27
2023-06-11T00:52:41.121Z,86.70
2023-06-11T00:55:13.063Z,87.47
2023-06-11T00:57:42.527Z,86.75
2023-06-11T01:00:13.882Z,86.79
2023-06-11T01:02:54.446Z,86.90
2023-06-11T01:05:25.335Z,86.08
2023-06-11T01:07:56.998Z,85.62
2023-06-11T01:10:34.986Z,87.84
2023-06-11T01:13:03.322Z,86.95
2023-06-11T01:15:31.646Z,86.86
2023-06-11T01:18:20.484Z,85.97
2023-06-11T01:21:18.505Z,86.66
2023-06-11T01:24:18.304Z,87.60
2023-06-11T01:26:46.766Z,87.80
2023-06-11T01:29:16.477Z,87.65
2023-06-11T01:31:45.651Z,87.27
2023-06-11T01:34:15.280Z,87.20
2023-06-11T01:36:44.855Z,86.84
2023-06-11T01:39:13.742Z,86.76
2023-06-11T01:41:47.567Z,86.87
2023-06-11T01:44:21.467Z,87.02
2023-06-11T01:46:49.912Z,87.29
2023-06-11T01:49:19.028Z,87.06
2023-06-11T01:51:47.606Z,88.48
2023-06-11T01:54:15.928Z,88.68
2023-06-11T01:56:45.026Z,88.89
2023-06-11T01:59:19.142Z,88.79
2023-06-11T02:01:54.313Z,89.23
2023-06-11T02:04:23.922Z,89.52
2023-06-11T02:06:52.525Z,89.33
2023-06-11T02:09:20.880Z,89.29
2023-06-11T02:11:49.276Z,89.39
2023-06-11T02:14:17.918Z,88.89
2023-06-11T02:16:46.291Z,89.15
2023-06-11T02:19:14.696Z,89.11
2023-06-11T02:21:44.493Z,89.92
2023-06-11T02:24:12.875Z,89.42
2023-06-11T02:26:41.236Z,88.63
2023-06-11T02:29:09.510Z,88.78
2023-06-11T02:31:37.732Z,88.51
2023-06-11T02:34:06.367Z,89.17
2023-06-11T02:36:35.882Z,90.14
2023-06-11T02:39:04.763Z,90.94
2023-06-11T02:41:33.123Z,90.38
2023-06-11T02:44:01.440Z,90.38
2023-06-11T02:46:29.768Z,90.69
2023-06-11T02:48:58.055Z,90.80
2023-06-11T02:51:26.376Z,90.46
2023-06-11T02:53:54.695Z,90.07
2023-06-11T02:56:23.269Z,89.75
2023-06-11T02:58:51.762Z,90.14
2023-06-11T03:01:20.099Z,90.36
2023-06-11T03:03:48.637Z,89.10
2023-06-11T03:06:20.680Z,90.13
2023-06-11T03:08:49.221Z,90.36
2023-06-11T03:11:17.873Z,91.31
2023-06-11T03:13:47.700Z,89.29
2023-06-11T03:16:16.276Z,89.74
2023-06-11T03:18:45.031Z,90.78
2023-06-11T03:21:13.396Z,90.36
2023-06-11T03:23:41.830Z,90.85
2023-06-11T03:26:10.408Z,90.69
2023-06-11T03:28:43.027Z,90.83
2023-06-11T03:31:12.009Z,91.23
2023-06-11T03:33:40.674Z,90.20
2023-06-11T03:36:11.336Z,89.56
2023-06-11T03:38:40.075Z,90.30
2023-06-11T03:41:11.969Z,90.85
2023-06-11T03:43:40.575Z,90.53
2023-06-11T03:46:08.958Z,90.45
2023-06-11T03:48:37.600Z,90.25
2023-06-11T03:51:06.043Z,89.68
2023-06-11T03:53:34.433Z,89.25
2023-06-11T03:56:02.776Z,88.89
2023-06-11T03:58:31.430Z,89.18
2023-06-11T04:00:59.900Z,88.83
2023-06-11T04:03:28.710Z,88.43
2023-06-11T04:05:57.104Z,88.26
2023-06-11T04:08:25.540Z,88.05
2023-06-11T04:10:54.492Z,87.50
2023-06-11T04:13:23.063Z,87.32
2023-06-11T04:15:51.485Z,87.04
2023-06-11T04:18:19.842Z,87.01
2023-06-11T04:20:50.431Z,86.85
2023-06-11T04:23:21.399Z,87.17
2023-06-11T04:25:50.413Z,86.65
2023-06-11T04:28:20.660Z,86.69
2023-06-11T04:30:50.117Z,86.22
2023-06-11T04:33:18.903Z,86.38
2023-06-11T04:35:49.452Z,85.94
2023-06-11T04:38:19.336Z,85.31
2023-06-11T04:40:48.007Z,85.34
2023-06-11T04:43:16.362Z,85.32
2023-06-11T04:45:44.941Z,85.54
2023-06-11T04:48:14.497Z,85.66
2023-06-11T04:50:43.592Z,85.07
2023-06-11T04:53:14.393Z,84.65
2023-06-11T04:55:42.990Z,84.32
2023-06-11T04:58:11.477Z,83.83
2023-06-11T05:00:40.295Z,83.64
2023-06-11T05:03:09.075Z,83.18
2023-06-11T05:05:39.666Z,83.70
2023-06-11T05:08:07.990Z,83.61
2023-06-11T05:10:38.904Z,83.71
2023-06-11T05:13:07.536Z,83.77
2023-06-11T05:15:36.119Z,83.49
2023-06-11T05:18:04.780Z,83.12
2023-06-11T05:20:33.779Z,83.11
2023-06-11T05:23:04.552Z,83.26
2023-06-11T05:25:36.670Z,83.13
2023-06-11T05:28:09.261Z,83.05
2023-06-11T05:30:38.378Z,82.97
2023-06-11T05:33:09.146Z,82.39
2023-06-11T05:35:38.901Z,82.52
2023-06-11T05:38:07.636Z,82.06
2023-06-11T05:40:40.276Z,81.91
2023-06-11T05:43:08.662Z,81.68
2023-06-11T05:45:37.769Z,81.57
2023-06-11T05:48:07.592Z,81.34
2023-06-11T05:50:38.098Z,81.27
2023-06-11T05:53:07.193Z,81.18
2023-06-11T05:55:36.785Z,80.44
2023-06-11T05:58:06.536Z,79.49
2023-06-11T06:00:34.972Z,79.59
2023-06-11T06:03:05.454Z,78.79
2023-06-11T06:05:34.449Z,78.90
2023-06-11T06:08:02.876Z,78.06
2023-06-11T06:10:32.159Z,78.39
2023-06-11T06:13:00.597Z,78.39
2023-06-11T06:15:29.106Z,78.77
2023-06-11T06:17:57.555Z,78.73
2023-06-11T06:20:35.621Z,78.02
2023-06-11T06:23:03.931Z,77.27
2023-06-11T06:25:33.487Z,76.92
2023-06-11T06:28:02.154Z,76.21
2023-06-11T06:30:33.869Z,75.92
2023-06-11T06:33:02.740Z,75.12
2023-06-11T06:35:34.754Z,74.68
2023-06-11T06:38:03.785Z,75.05
2023-06-11T06:40:32.565Z,75.04
2023-06-11T06:43:01.171Z,73.84
2023-06-11T06:45:34.735Z,74.79
2023-06-11T06:48:07.610Z,72.56
2023-06-11T06:50:36.189Z,73.53
2023-06-11T06:53:04.411Z,73.14
2023-06-11T06:55:33.060Z,72.45
2023-06-11T06:58:05.738Z,71.55
2023-06-11T07:00:34.443Z,71.64
2023-06-11T07:03:02.964Z,69.44
2023-06-11T07:05:31.915Z,67.76
2023-06-11T07:08:00.636Z,67.87
2023-06-11T07:10:31.467Z,68.99
2023-06-11T07:13:00.723Z,68.61
2023-06-11T07:15:29.592Z,68.26
2023-06-11T07:17:58.189Z,68.15
2023-06-11T07:20:26.774Z,66.57
2023-06-11T07:22:55.282Z,65.70
2023-06-11T07:25:24.236Z,66.51
2023-06-11T07:27:52.650Z,64.50
2023-06-11T07:30:21.622Z,63.36
2023-06-11T07:32:50.188Z,63.02
2023-06-11T07:35:18.680Z,58.26
2023-06-11T07:37:47.053Z,58.38
2023-06-11T07:40:17.300Z,57.87
2023-06-11T07:42:46.878Z,55.67
2023-06-11T07:45:16.287Z,57.00
2023-06-11T07:47:47.664Z,55.84
2023-06-11T07:50:16.115Z,57.29
2023-06-11T07:52:45.076Z,53.70
2023-06-11T07:55:19.266Z,56.98
2023-06-11T07:57:47.636Z,56.98
2023-06-11T08:00:18.451Z,54.76
2023-06-11T08:02:47.690Z,54.66
2023-06-11T08:05:19.171Z,54.41
2023-06-11T08:07:50.568Z,53.77
2023-06-11T08:10:19.083Z,51.80
2023-06-11T08:12:47.497Z,52.53
2023-06-11T08:15:15.908Z,53.13
2023-06-11T08:17:44.901Z,52.78
2023-06-11T08:20:13.744Z,53.36
2023-06-11T08:22:42.834Z,51.78
2023-06-11T08:25:12.297Z,52.58
2023-06-11T08:27:40.784Z,52.67
2023-06-11T08:30:10.840Z,51.52
2023-06-11T08:32:39.666Z,52.45
2023-06-11T08:35:09.274Z,52.89
2023-06-11T08:37:37.707Z,52.66
2023-06-11T08:40:10.261Z,53.27
2023-06-11T08:42:38.927Z,52.96
2023-06-11T08:45:08.250Z,52.66
2023-06-11T08:47:42.168Z,52.02
2023-06-11T08:50:11.791Z,52.99
2023-06-11T08:52:43.093Z,52.20
2023-06-11T08:55:11.764Z,52.53
2023-06-11T08:57:40.046Z,51.70
2023-06-11T09:00:11.461Z,52.69
2023-06-11T09:02:40.714Z,52.98
2023-06-11T09:05:10.217Z,52.66
2023-06-11T09:07:38.886Z,52.70
2023-06-11T09:10:12.129Z,52.77
2023-06-11T09:12:40.776Z,52.86
2023-06-11T09:15:10.877Z,52.21
2023-06-11T09:17:42.252Z,52.35
2023-06-11T09:20:16.639Z,52.38
2023-06-11T09:22:46.944Z,53.29
2023-06-11T09:25:19.668Z,51.83
2023-06-11T09:27:51.698Z,49.87
2023-06-11T09:30:21.172Z,51.55
2023-06-11T09:32:50.552Z,52.13
2023-06-11T09:35:22.182Z,52.34
2023-06-11T09:37:52.998Z,52.67
2023-06-11T09:40:24.902Z,53.31
2023-06-11T09:42:53.545Z,52.69
2023-06-11T09:45:22.794Z,53.54
2023-06-11T09:47:52.896Z,53.54
2023-06-11T09:50:23.152Z,53.46
2023-06-11T09:52:53.753Z,53.91
2023-06-11T09:55:23.015Z,54.62
2023-06-11T09:57:54.328Z,54.68
2023-06-11T10:00:23.363Z,54.53
2023-06-11T10:02:51.853Z,54.74
2023-06-11T10:05:21.770Z,55.65
2023-06-11T10:08:13.675Z,56.00
2023-06-11T10:10:45.944Z,54.17
2023-06-11T10:13:27.405Z,54.68
2023-06-11T10:15:56.158Z,52.02
2023-06-11T10:18:28.267Z,50.27
2023-06-11T10:21:00.284Z,50.58
2023-06-11T10:23:41.622Z,48.89
2023-06-11T10:26:11.579Z,49.10
2023-06-11T10:28:46.204Z,49.43
2023-06-11T10:31:28.817Z,49.73
2023-06-11T10:34:07.512Z,49.81
2023-06-11T10:36:40.072Z,49.40
2023-06-11T10:39:21.569Z,50.23
2023-06-11T10:42:01.324Z,50.08
2023-06-11T10:44:31.039Z,50.89
2023-06-11T10:47:01.943Z,49.81
2023-06-11T10:49:30.519Z,48.59
2023-06-11T10:52:03.343Z,47.93
2023-06-11T10:54:36.063Z,46.37
2023-06-11T10:57:05.257Z,46.79
2023-06-11T10:59:33.720Z,47.71
2023-06-11T11:02:02.095Z,48.67
2023-06-11T11:04:30.471Z,48.08
2023-06-11T11:07:11.961Z,48.67
2023-06-11T11:09:40.546Z,48.97
2023-06-11T11:12:09.373Z,49.27
2023-06-11T11:14:37.809Z,50.15
2023-06-11T11:17:07.138Z,50.62
2023-06-11T11:19:37.328Z,51.11
2023-06-11T11:22:06.109Z,51.81
2023-06-11T11:24:38.305Z,52.49
2023-06-11T11:27:09.370Z,52.49
2023-06-11T11:29:38.446Z,52.56
2023-06-11T11:32:07.668Z,52.97
2023-06-11T11:34:40.500Z,53.49
2023-06-11T11:37:08.836Z,53.19
2023-06-11T11:39:38.068Z,54.09
2023-06-11T11:42:10.995Z,51.35
2023-06-11T11:44:41.031Z,51.33
2023-06-11T11:47:10.712Z,52.19
2023-06-11T11:49:39.501Z,51.15
2023-06-11T11:52:08.661Z,51.51
2023-06-11T11:54:43.099Z,51.38
2023-06-11T11:57:13.133Z,51.47
2023-06-11T11:59:41.668Z,51.24
2023-06-11T12:02:10.793Z,50.93
2023-06-11T12:04:41.692Z,50.11
2023-06-11T12:07:15.058Z,49.52
2023-06-11T12:09:43.529Z,48.33
2023-06-11T12:12:11.958Z,45.97
2023-06-11T12:14:40.234Z,45.64
2023-06-11T12:17:12.610Z,44.18
2023-06-11T12:19:41.073Z,42.31
2023-06-11T12:22:09.530Z,41.50
2023-06-11T12:24:37.959Z,43.99
2023-06-11T12:27:12.258Z,42.61
2023-06-11T12:29:41.698Z,41.64
2023-06-11T12:32:14.613Z,42.87
2023-06-11T12:34:42.994Z,41.65
2023-06-11T12:37:12.275Z,42.16
2023-06-11T12:39:44.799Z,39.22
2023-06-11T12:42:15.558Z,38.71
2023-06-11T12:44:44.819Z,39.56
2023-06-11T12:47:13.139Z,40.84
2023-06-11T12:49:41.543Z,41.24
2023-06-11T12:52:13.702Z,39.79
2023-06-11T12:54:42.150Z,38.24
2023-06-11T12:57:12.633Z,37.32
2023-06-11T12:59:41.104Z,39.43
2023-06-11T13:02:13.680Z,37.83
2023-06-11T13:04:44.134Z,38.10
2023-06-11T13:07:14.303Z,38.00
2023-06-11T13:09:42.741Z,36.31
2023-06-11T13:12:11.569Z,35.31
2023-06-11T13:14:39.820Z,36.40
2023-06-11T13:17:08.151Z,35.38
2023-06-11T13:19:37.079Z,36.47
2023-06-11T13:22:06.418Z,36.83
2023-06-11T13:24:34.752Z,36.98
2023-06-11T13:27:03.250Z,36.85
2023-06-11T13:29:31.506Z,37.13
2023-06-11T13:31:59.786Z,38.13
2023-06-11T13:34:28.205Z,37.85
2023-06-11T13:36:59.401Z,39.11
2023-06-11T13:39:27.804Z,40.46
2023-06-11T13:41:56.154Z,40.61
2023-06-11T13:44:25.571Z,40.30
2023-06-11T13:46:54.046Z,40.15
2023-06-11T13:49:24.161Z,40.82
2023-06-11T13:51:53.606Z,40.63
2023-06-11T13:54:21.956Z,41.20
2023-06-11T13:56:50.293Z,42.45
2023-06-11T13:59:20.825Z,42.72
2023-06-11T14:01:49.099Z,43.15
2023-06-11T14:04:18.352Z,43.91
2023-06-11T14:06:46.774Z,44.78
2023-06-11T14:09:15.987Z,44.82
2023-06-11T14:11:44.376Z,45.65
2023-06-11T14:14:13.876Z,46.20
2023-06-11T14:16:42.459Z,46.45
2023-06-11T14:19:11.613Z,46.41
2023-06-11T14:21:40.079Z,47.41
2023-06-11T14:24:10.725Z,47.04
2023-06-11T14:26:39.103Z,46.68
2023-06-11T14:29:07.390Z,46.88
2023-06-11T14:31:36.347Z,47.84
2023-06-11T14:34:04.729Z,47.51
2023-06-11T14:36:33.002Z,47.22
2023-06-11T14:39:01.325Z,46.24
2023-06-11T14:41:29.622Z,46.48
2023-06-11T14:43:57.994Z,46.45
2023-06-11T14:46:27.033Z,45.51
2023-06-11T14:48:55.350Z,45.41
2023-06-11T14:51:24.334Z,45.63
2023-06-11T14:53:52.791Z,45.13
2023-06-11T14:56:22.310Z,45.22
2023-06-11T14:58:50.608Z,44.89
2023-06-11T15:01:19.057Z,43.86
2023-06-11T15:03:47.413Z,44.12
2023-06-11T15:06:15.763Z,44.26
2023-06-11T15:08:44.118Z,44.31
2023-06-11T15:11:12.628Z,45.27
2023-06-11T15:13:42.208Z,44.77
2023-06-11T15:16:10.623Z,45.24
2023-06-11T15:18:38.966Z,44.44
2023-06-11T15:21:07.235Z,44.91
2023-06-11T15:23:36.068Z,44.60
2023-06-11T15:26:04.527Z,44.18
2023-06-11T15:28:32.803Z,44.28
2023-06-11T15:31:01.501Z,45.13
2023-06-11T15:33:29.810Z,44.58
2023-06-11T15:35:58.190Z,44.53
2023-06-11T15:38:28.474Z,44.37
2023-06-11T15:40:57.793Z,44.74
2023-06-11T15:43:26.145Z,45.17
2023-06-11T15:45:54.464Z,45.68
2023-06-11T15:48:23.238Z,45.95
2023-06-11T15:50:51.780Z,46.13
2023-06-11T15:53:20.138Z,46.64
2023-06-11T15:55:48.502Z,46.72
2023-06-11T15:58:16.881Z,46.54
2023-06-11T16:00:45.979Z,46.89
2023-06-11T16:03:16.092Z,47.14
2023-06-11T16:05:44.352Z,47.08
2023-06-11T16:08:12.629Z,47.43
2023-06-11T16:10:41.375Z,48.01
2023-06-11T16:13:09.812Z,50.07
2023-06-11T16:15:38.922Z,51.13
2023-06-11T16:18:07.337Z,53.24
2023-06-11T16:20:35.973Z,53.76
2023-06-11T16:23:04.439Z,54.83
2023-06-11T16:25:32.702Z,54.61
2023-06-11T16:28:01.074Z,56.19
2023-06-11T16:30:30.731Z,55.94
2023-06-11T16:32:59.233Z,56.24
2023-06-11T16:35:28.364Z,56.98
2023-06-11T16:37:56.690Z,57.08
2023-06-11T16:40:25.078Z,57.39
2023-06-11T16:42:53.421Z,56.65
2023-06-11T16:45:21.858Z,57.06
2023-06-11T16:47:50.329Z,56.15
2023-06-11T16:50:18.955Z,56.54
2023-06-11T16:52:49.690Z,56.17
2023-06-11T16:55:21.448Z,56.66
2023-06-11T16:57:50.671Z,56.16
2023-06-11T17:00:19.657Z,56.40
2023-06-11T17:02:50.631Z,56.73
2023-06-11T17:05:19.440Z,57.32
2023-06-11T17:07:51.319Z,57.69
2023-06-11T17:10:19.582Z,57.68
2023-06-11T17:12:48.087Z,58.17
2023-06-11T17:15:17.571Z,58.79
2023-06-11T17:17:47.034Z,58.15
2023-06-11T17:20:16.301Z,58.47
2023-06-11T17:22:46.761Z,58.84
2023-06-11T17:25:16.020Z,59.00
2023-06-11T17:27:44.997Z,58.62
2023-06-11T17:30:13.578Z,59.61
2023-06-11T17:32:42.523Z,59.21
2023-06-11T17:35:11.374Z,59.50
2023-06-11T17:37:40.034Z,60.08
2023-06-11T17:40:09.208Z,59.53
2023-06-11T17:42:42.644Z,60.76
2023-06-11T17:45:12.138Z,60.26
2023-06-11T17:47:40.917Z,61.35
2023-06-11T17:50:11.824Z,61.11
2023-06-11T17:52:40.770Z,61.53
2023-06-11T17:55:14.278Z,62.57
2023-06-11T17:57:47.481Z,61.56
2023-06-11T18:00:17.951Z,63.21
2023-06-11T18:02:48.251Z,61.82
2023-06-11T18:05:16.732Z,63.98
2023-06-11T18:07:48.107Z,63.19
2023-06-11T18:10:17.321Z,64.71
2023-06-11T18:12:45.891Z,65.18
2023-06-11T18:17:45.562Z,64.38
2023-06-11T18:20:13.967Z,63.72
2023-06-11T18:22:43.831Z,64.55
2023-06-11T18:25:12.830Z,65.36
2023-06-11T18:27:41.793Z,65.28
2023-06-11T18:30:10.555Z,65.48
2023-06-11T18:32:39.383Z,66.94
2023-06-11T18:35:08.127Z,65.74
2023-06-11T18:37:36.397Z,65.49
2023-06-11T18:40:06.163Z,66.51
2023-06-11T18:42:34.434Z,68.64
2023-06-11T18:45:02.791Z,67.56
2023-06-11T18:47:31.423Z,69.52
2023-06-11T18:49:59.811Z,68.25
2023-06-11T18:52:28.143Z,68.10
2023-06-11T18:54:56.487Z,68.33
2023-06-11T18:57:27.819Z,68.55
2023-06-11T18:59:56.818Z,69.02
2023-06-11T19:02:25.281Z,68.60
2023-06-11T19:04:55.779Z,70.33
2023-06-11T19:07:24.453Z,68.82
2023-06-11T19:09:53.157Z,68.59
2023-06-11T19:12:21.522Z,69.91
2023-06-11T19:14:50.584Z,69.76
2023-06-11T19:17:19.231Z,70.16
2023-06-11T19:19:47.547Z,70.58
2023-06-11T19:22:15.895Z,69.67
2023-06-11T19:24:44.182Z,69.91
2023-06-11T19:27:13.132Z,70.41
2023-06-11T19:29:41.520Z,68.67
2023-06-11T19:32:11.778Z,68.81
2023-06-11T19:34:40.156Z,68.85
2023-06-11T19:37:08.583Z,70.07
2023-06-11T19:39:36.855Z,69.92
2023-06-11T19:42:05.448Z,70.41
2023-06-11T19:44:34.081Z,70.38
2023-06-11T19:47:02.507Z,70.78
2023-06-11T19:49:31.082Z,70.18
2023-06-11T19:51:59.351Z,69.71
2023-06-11T19:54:45.903Z,70.55
2023-06-11T19:57:18.916Z,69.37
2023-06-11T19:59:48.547Z,69.73
2023-06-11T20:02:17.030Z,69.89
2023-06-11T20:04:46.779Z,70.16
2023-06-11T20:07:17.139Z,69.68
2023-06-11T20:09:46.658Z,69.92
2023-06-11T20:12:14.997Z,70.88
2023-06-11T20:14:43.354Z,70.96
2023-06-11T20:17:11.836Z,71.65
2023-06-11T20:19:40.650Z,71.68
2023-06-11T20:22:08.922Z,72.43
2023-06-11T20:24:37.301Z,71.97
2023-06-11T20:27:06.557Z,71.84
2023-06-11T20:29:36.100Z,73.18
2023-06-11T20:32:05.213Z,72.52
2023-06-11T20:34:33.621Z,70.73
2023-06-11T20:37:02.111Z,71.56
2023-06-11T20:39:30.329Z,71.94
2023-06-11T20:41:58.749Z,71.83
2023-06-11T20:44:27.415Z,72.91
2023-06-11T20:46:55.738Z,72.43
2023-06-11T20:49:24.054Z,72.67
2023-06-11T20:51:52.400Z,72.83
2023-06-11T20:54:21.130Z,72.60
2023-06-11T20:56:49.365Z,74.29
2023-06-11T20:59:18.186Z,73.16
2023-06-11T21:01:46.768Z,72.66
2023-06-11T21:04:15.176Z,73.28
2023-06-11T21:06:43.792Z,73.16
2023-06-11T21:09:12.147Z,72.91
2023-06-11T21:11:40.531Z,73.40
2023-06-11T21:14:13.390Z,73.02
2023-06-11T21:16:43.100Z,73.20
2023-06-11T21:19:11.712Z,73.07
2023-06-11T21:21:40.052Z,73.11
2023-06-11T21:24:08.875Z,73.00
2023-06-11T21:26:37.519Z,72.78
2023-06-11T21:29:08.978Z,73.64
2023-06-11T21:31:37.232Z,73.33
2023-06-11T21:34:05.642Z,73.67
2023-06-11T21:36:33.920Z,73.19
2023-06-11T21:39:02.349Z,74.52
2023-06-11T21:41:30.679Z,74.72
2023-06-11T21:43:58.989Z,74.83
2023-06-11T21:46:27.345Z,74.42
2023-06-11T21:48:55.781Z,73.85
2023-06-11T21:51:26.690Z,74.43
2023-06-11T21:53:55.032Z,73.44
2023-06-11T21:56:23.388Z,73.71
2023-06-11T21:58:51.664Z,73.74
2023-06-11T22:01:19.987Z,74.88
2023-06-11T22:03:48.418Z,74.13
2023-06-11T22:06:17.046Z,74.62
2023-06-11T22:08:45.802Z,73.86
2023-06-11T22:11:14.201Z,74.75
2023-06-11T22:13:42.438Z,74.11
2023-06-11T22:16:10.759Z,74.76
2023-06-11T22:18:39.726Z,73.88
2023-06-11T22:21:07.943Z,73.62
2023-06-11T22:23:50.353Z,74.14
2023-06-11T22:26:22.890Z,73.31
2023-06-11T22:28:51.862Z,74.46
2023-06-11T22:31:20.126Z,74.80
2023-06-11T22:33:48.584Z,74.35
2023-06-11T22:36:16.893Z,74.23
2023-06-11T22:38:45.212Z,73.64
2023-06-11T22:41:13.480Z,73.41
2023-06-11T22:43:41.734Z,72.83
2023-06-11T22:46:10.149Z,73.17
2023-06-11T22:48:38.423Z,72.95
2023-06-11T22:51:11.187Z,72.88
2023-06-11T22:53:40.172Z,73.34
2023-06-11T22:56:08.502Z,73.37
2023-06-11T22:58:36.730Z,73.80
2023-06-11T23:01:05.092Z,73.83
2023-06-11T23:03:33.532Z,73.59
2023-06-11T23:06:02.251Z,73.66
2023-06-11T23:08:30.551Z,73.62
2023-06-11T23:10:58.844Z,73.74
2023-06-11T23:13:27.088Z,73.25
2023-06-11T23:15:55.706Z,73.36
2023-06-11T23:18:26.187Z,73.70
2023-06-11T23:20:54.875Z,73.86
2023-06-11T23:23:23.741Z,74.65
2023-06-11T23:25:53.919Z,74.34
2023-06-11T23:28:24.094Z,75.21
2023-06-11T23:30:53.947Z,74.74
2023-06-11T23:33:23.606Z,74.57
2023-06-11T23:35:52.860Z,75.41
2023-06-11T23:38:21.070Z,76.00
2023-06-11T23:40:50.087Z,75.77
2023-06-11T23:43:18.593Z,75.81
2023-06-11T23:45:47.077Z,75.64
2023-06-11T23:48:15.759Z,77.08
2023-06-11T23:50:44.973Z,77.35
2023-06-11T23:53:13.413Z,77.47
2023-06-11T23:55:44.750Z,75.83
2023-06-11T23:58:21.392Z,75.71
